Hoegh Berlin — C6XQ4 — position and weather

sailwx.info

Track history (hours):
 
Tides and Currents Weather Stations Pressure Air Temp Water Temp Dewpoint Dewpoint Depression Visibility Wind Speed Wind Dir Waves Ship Positions

Hoegh Berlin

Last reported at 2014-Oct-01 00:33 UTC. Time now 2014-Oct-02 16:44 UTC.
Position N 01°15' E 104°05'.

Length 228 m; draft 8.7 m.

Type: Cargo ship. MMSI: 311019100.

Date/timePositionNaut miles runAvg speedWind from/ knotsBaromVisibWave heightAir tempDewpointWater temp
2014-Oct-01 00:33N 01°15' E 104°05'1514.9
2014-Sep-30 23:33N 01°11' E 103°50'8 8.0
2014-Sep-30 22:33N 01°17' E 103°45'1 0.7
2014-Sep-30 21:31N 01°17' E 103°45'0 0.0
2014-Sep-30 20:31N 01°17' E 103°45'0 0.0
2014-Sep-30 19:31N 01°17' E 103°45'0 0.0
2014-Sep-30 18:31N 01°17' E 103°45'0 0.0
2014-Sep-30 17:31N 01°17' E 103°45'0 0.0
2014-Sep-30 16:31N 01°17' E 103°45'0 0.0
2014-Sep-30 15:31N 01°17' E 103°45'0 0.0
2014-Sep-30 14:31N 01°17' E 103°45'0 0.0
2014-Sep-30 13:31N 01°17' E 103°45'0 0.0
2014-Sep-30 12:31N 01°17' E 103°45'0 0.0
2014-Sep-30 11:28N 01°17' E 103°45'0 0.0
2014-Sep-30 10:31N 01°17' E 103°45'0 0.0
2014-Sep-30 09:31N 01°17' E 103°45'0 0.0
2014-Sep-30 08:31N 01°17' E 103°45'0 0.0
2014-Sep-30 07:31N 01°17' E 103°45'0 0.0
2014-Sep-30 06:31N 01°17' E 103°45'0 0.0
2014-Sep-30 05:31N 01°17' E 103°45'0 0.0
2014-Sep-30 04:31N 01°17' E 103°45'0 0.0
2014-Sep-30 03:31N 01°17' E 103°45'0 0.0
2014-Sep-30 02:31N 01°17' E 103°45'0 0.0
2014-Sep-30 01:31N 01°17' E 103°45'1 0.6
2014-Sep-30 00:34N 01°17' E 103°45'5 5.2
2014-Sep-29 23:34N 01°13' E 103°41'8 8.3
2014-Sep-29 22:33N 01°11' E 103°33'1110.6
2014-Sep-29 21:29N 01°14' E 103°22'  
Track history (hours):
 
Tides and Currents Weather Stations Pressure Air Temp Water Temp Dewpoint Dewpoint Depression Visibility Wind Speed Wind Dir Waves Ship Positions

Hoegh Berlin

Last reported at 2014-Oct-01 00:33 UTC. Time now 2014-Oct-02 16:44 UTC.
Position N 01°15' E 104°05'.

Length 228 m; draft 8.7 m.

Type: Cargo ship. MMSI: 311019100.

Date/timePositionNaut miles runAvg speedWind from/ knotsBaromVisibWave heightAir tempDewpointWater temp
2014-Oct-01 00:33N 01°15' E 104°05'1514.9
2014-Sep-30 23:33N 01°11' E 103°50'8 8.0
2014-Sep-30 22:33N 01°17' E 103°45'1 0.7
2014-Sep-30 21:31N 01°17' E 103°45'0 0.0
2014-Sep-30 20:31N 01°17' E 103°45'0 0.0
2014-Sep-30 19:31N 01°17' E 103°45'0 0.0
2014-Sep-30 18:31N 01°17' E 103°45'0 0.0
2014-Sep-30 17:31N 01°17' E 103°45'0 0.0
2014-Sep-30 16:31N 01°17' E 103°45'0 0.0
2014-Sep-30 15:31N 01°17' E 103°45'0 0.0
2014-Sep-30 14:31N 01°17' E 103°45'0 0.0
2014-Sep-30 13:31N 01°17' E 103°45'0 0.0
2014-Sep-30 12:31N 01°17' E 103°45'0 0.0
2014-Sep-30 11:28N 01°17' E 103°45'0 0.0
2014-Sep-30 10:31N 01°17' E 103°45'0 0.0
2014-Sep-30 09:31N 01°17' E 103°45'0 0.0
2014-Sep-30 08:31N 01°17' E 103°45'0 0.0
2014-Sep-30 07:31N 01°17' E 103°45'0 0.0
2014-Sep-30 06:31N 01°17' E 103°45'0 0.0
2014-Sep-30 05:31N 01°17' E 103°45'0 0.0
2014-Sep-30 04:31N 01°17' E 103°45'0 0.0
2014-Sep-30 03:31N 01°17' E 103°45'0 0.0
2014-Sep-30 02:31N 01°17' E 103°45'0 0.0
2014-Sep-30 01:31N 01°17' E 103°45'1 0.6
2014-Sep-30 00:34N 01°17' E 103°45'5 5.2
2014-Sep-29 23:34N 01°13' E 103°41'8 8.3
2014-Sep-29 22:33N 01°11' E 103°33'1110.6
2014-Sep-29 21:29N 01°14' E 103°22'  

Dump ship's entire track history